Pursley, Texas
Current Conditions -  °F | °C
As of 8:53 PM on Saturday 22 Nov 2014 (Local Time) from KCRS Reporting Station
Moderate Rain Moderate Rain  
Wind Chill: 62°   Ceiling: 800
Heat Index: 62°   Visibility: 4mi
Dew Point: 59°   Wind: 6mph
Humidity: 90%   Direction: NA
Pressure: 29.79"   Gusts: NA
Location:  31.9458°N, 96.5713°W
Report Text: KCRS 230253Z AUTO VRB05KT 4SM RA BR BKN008 BKN046 OVC095 17/15 A2979 RMK AO2 LTG DSNT SE SLP087 P0006 60038 T01670150 56009
Loading
Personal Weather Stations






























Interactive Weather Map New forecast layout! Learn more

10-Day Weather Forecast

Advertisements
Track Severe Weather on mobile